Time;durP1;ratioP1;P1;durP2;ratioP2;P2;SDS_P1;SDS_P2;PMS_P1;PMS_P2;Temp;Humidity;BMP_temperature;BMP_pressure;BME280_temperature;BME280_humidity;BME280_pressure;Samples;Min_cycle;Max_cycle;Signal;HPM_P1;HPM_P2
2021/01/13 00:01:20;;;;;;;1.00;1.00;;;;;;;-2.49;80.56;100251.39;1735400;81;21186;-50
2021/01/13 00:03:47;;;;;;;0.33;0.33;;;;;;;-2.51;80.35;100248.08;1751293;81;21202;-49
2021/01/13 00:06:16;;;;;;;0.03;0.03;;;;;;;-2.53;80.25;100242.09;1723756;81;21128;-49
2021/01/13 00:08:44;;;;;;;0.10;0.10;;;;;;;-2.54;80.46;100249.30;1731280;81;21151;-49
2021/01/13 00:11:15;;;;;;;0.00;0.00;;;;;;;-2.56;80.30;100251.87;1735265;81;21151;-49
2021/01/13 00:13:44;;;;;;;0.00;0.00;;;;;;;-2.55;80.55;100260.20;1742950;81;21545;-49
2021/01/13 00:16:14;;;;;;;0.00;0.00;;;;;;;-2.55;80.76;100276.25;1751239;81;21474;-49
2021/01/13 00:18:42;;;;;;;0.60;0.37;;;;;;;-2.55;80.92;100261.02;1751594;81;21139;-49
2021/01/13 00:21:16;;;;;;;0.10;0.10;;;;;;;-2.53;80.92;100270.20;1751597;81;21127;-48
2021/01/13 00:23:45;;;;;;;0.13;0.13;;;;;;;-2.54;80.74;100256.00;1739893;81;21179;-48
2021/01/13 00:26:23;;;;;;;0.00;0.00;;;;;;;-2.55;80.87;100254.84;1723661;82;21036;-49
2021/01/13 00:28:51;;;;;;;0.10;0.10;;;;;;;-2.57;80.99;100240.34;1746511;81;21171;-49
2021/01/13 00:31:20;;;;;;;0.13;0.13;;;;;;;-2.57;81.14;100238.16;1759690;81;21120;-49
2021/01/13 00:33:47;;;;;;;0.30;0.30;;;;;;;-2.60;80.98;100228.68;1732875;81;21112;-48
2021/01/13 00:36:26;;;;;;;0.98;0.90;;;;;;;-2.61;81.08;100219.84;1730672;82;21175;-48
2021/01/13 00:38:53;;;;;;;0.05;0.05;;;;;;;-2.61;81.14;100223.84;1729655;82;21188;-48
2021/01/13 00:41:21;;;;;;;0.05;0.05;;;;;;;-2.62;80.88;100206.67;1730468;82;21178;-49
2021/01/13 00:43:49;;;;;;;0.10;0.10;;;;;;;-2.63;81.02;100210.36;1733869;81;21159;-49
2021/01/13 00:46:17;;;;;;;0.10;0.10;;;;;;;-2.65;80.91;100202.52;1730545;82;21188;-49
2021/01/13 00:48:46;;;;;;;0.20;0.20;;;;;;;-2.65;81.01;100194.50;1730695;81;21601;-49
2021/01/13 00:51:13;;;;;;;0.10;0.10;;;;;;;-2.66;81.04;100181.34;1730571;82;21163;-49
2021/01/13 00:53:41;;;;;;;0.20;0.20;;;;;;;-2.67;81.22;100158.27;1730446;82;21131;-48
2021/01/13 00:56:09;;;;;;;0.33;0.33;;;;;;;-2.69;81.20;100146.97;1730502;82;21131;-49
2021/01/13 00:58:36;;;;;;;0.10;0.10;;;;;;;-2.70;81.25;100135.94;1730570;82;21140;-49
2021/01/13 01:01:04;;;;;;;0.00;0.00;;;;;;;-2.71;81.25;100153.03;1730674;82;21143;-49
2021/01/13 01:03:32;;;;;;;0.65;0.65;;;;;;;-2.71;81.65;100146.34;1730527;82;21589;-48
2021/01/13 01:06:00;;;;;;;0.57;0.57;;;;;;;-2.70;81.70;100147.98;1730557;82;21178;-49
2021/01/13 01:08:27;;;;;;;0.20;0.20;;;;;;;-2.70;81.68;100150.13;1730937;81;21611;-48
2021/01/13 01:10:56;;;;;;;0.10;0.10;;;;;;;-2.70;81.83;100146.13;1730297;81;21139;-49
2021/01/13 01:13:23;;;;;;;0.10;0.10;;;;;;;-2.70;81.87;100127.40;1730753;81;21677;-49
2021/01/13 01:15:51;;;;;;;0.10;0.10;;;;;;;-2.70;81.89;100123.39;1730927;81;21169;-48
2021/01/13 01:18:18;;;;;;;0.00;0.00;;;;;;;-2.71;81.85;100116.92;1730445;82;21103;-48
2021/01/13 01:20:46;;;;;;;0.10;0.10;;;;;;;-2.74;82.06;100119.48;1730460;82;21127;-49
2021/01/13 01:23:13;;;;;;;1.07;1.07;;;;;;;-2.73;81.84;100122.45;1730483;82;21151;-48
2021/01/13 01:25:41;;;;;;;0.72;0.72;;;;;;;-2.73;82.03;100121.13;1730421;82;21143;-49
2021/01/13 01:28:08;;;;;;;0.90;0.47;;;;;;;-2.74;81.84;100130.19;1721605;83;21139;-48
2021/01/13 01:30:35;;;;;;;0.78;0.65;;;;;;;-2.73;82.08;100130.48;1751541;81;21140;-49
2021/01/13 01:33:03;;;;;;;0.45;0.42;;;;;;;-2.75;81.83;100120.48;1751504;81;21158;-48
2021/01/13 01:35:31;;;;;;;1.17;1.10;;;;;;;-2.75;82.08;100117.00;1721660;83;21147;-49
2021/01/13 01:37:58;;;;;;;0.35;0.35;;;;;;;-2.75;82.20;100115.14;1765010;80;21139;-49
2021/01/13 01:40:25;;;;;;;0.00;0.00;;;;;;;-2.73;82.40;100105.08;1718765;81;21578;-49
2021/01/13 01:42:54;;;;;;;0.13;0.13;;;;;;;-2.72;82.40;100109.91;1766476;81;21566;-49
2021/01/13 01:45:27;;;;;;;3.47;0.55;;;;;;;-2.72;82.59;100096.05;1752594;81;21144;-49
2021/01/13 01:48:07;;;;;;;0.20;0.08;;;;;;;-2.72;82.51;100085.34;1755764;81;21171;-49
2021/01/13 01:50:39;;;;;;;0.30;0.30;;;;;;;-2.72;82.58;100084.00;1757128;81;21156;-51
2021/01/13 01:53:55;;;;;;;0.10;0.10;;;;;;;-2.71;82.50;100100.88;1732219;81;21143;-49
2021/01/13 01:56:27;;;;;;;0.10;0.10;;;;;;;-2.71;82.51;100098.20;1757238;81;21131;-49
2021/01/13 01:59:04;;;;;;;0.10;0.10;;;;;;;-2.73;82.37;100078.33;1750714;81;21150;-49
2021/01/13 02:01:41;;;;;;;0.20;0.20;;;;;;;-2.76;82.37;100062.69;1755169;81;21134;-49
2021/01/13 02:04:26;;;;;;;0.28;0.28;;;;;;;-2.76;82.33;100062.69;1756957;81;21134;-49
2021/01/13 02:07:14;;;;;;;0.20;0.20;;;;;;;-2.76;82.55;100056.00;1757030;81;21226;-49
2021/01/13 02:09:42;;;;;;;0.10;0.10;;;;;;;-2.77;82.75;100046.31;1757019;81;21403;-49
2021/01/13 02:12:11;;;;;;;8.93;0.90;;;;;;;-2.75;82.69;100058.16;1747273;82;21475;-49
2021/01/13 02:14:41;;;;;;;0.10;0.10;;;;;;;-2.76;82.80;100060.02;1741332;81;21454;-49
2021/01/13 02:17:09;;;;;;;0.10;0.10;;;;;;;-2.73;82.88;100071.64;1727135;83;21194;-48
2021/01/13 02:19:54;;;;;;;0.28;0.28;;;;;;;-2.74;82.78;100074.53;1747198;81;21119;-48
2021/01/13 02:22:26;;;;;;;0.53;0.53;;;;;;;-2.73;82.89;100070.30;1757301;81;21194;-48
2021/01/13 02:25:16;;;;;;;0.00;0.00;;;;;;;-2.72;82.96;100060.42;1732350;81;21542;-48
2021/01/13 02:28:06;;;;;;;0.10;0.10;;;;;;;-2.74;82.88;100051.28;1756696;81;21494;-48
2021/01/13 02:30:36;;;;;;;0.28;0.28;;;;;;;-2.72;83.11;100053.73;1727025;82;21191;-49
2021/01/13 02:33:08;;;;;;;0.82;0.82;;;;;;;-2.73;83.25;100043.55;1757036;81;21574;-49
2021/01/13 02:36:14;;;;;;;0.67;0.67;;;;;;;-2.74;83.17;100037.91;1727467;81;21140;-49
2021/01/13 02:38:41;;;;;;;0.10;0.10;;;;;;;-2.74;83.47;100028.55;1727143;81;21129;-49
2021/01/13 02:41:15;;;;;;;0.50;0.50;;;;;;;-2.74;83.13;100021.05;1700528;83;21138;-48
2021/01/13 02:43:53;;;;;;;0.35;0.20;;;;;;;-2.75;83.02;100012.70;1757105;81;21134;-49
2021/01/13 02:46:50;;;;;;;0.05;0.05;;;;;;;-2.77;82.77;100006.20;1734252;81;21181;-49
2021/01/13 02:49:26;;;;;;;0.25;0.25;;;;;;;-2.78;82.85;100006.42;1757413;81;21134;-49
2021/01/13 02:52:00;;;;;;;0.10;0.10;;;;;;;-2.79;83.19;100003.42;1760228;81;21140;-49
2021/01/13 02:54:35;;;;;;;0.30;0.30;;;;;;;-2.79;83.06;100000.25;1746494;81;21454;-49
2021/01/13 02:57:17;;;;;;;0.10;0.10;;;;;;;-2.79;82.94;99986.88;1764600;80;21150;-49
2021/01/13 02:59:47;;;;;;;0.78;0.78;;;;;;;-2.82;82.81;99981.92;1732990;81;21281;-49
2021/01/13 03:02:15;;;;;;;0.70;0.28;;;;;;;-2.83;82.79;99965.05;1738610;81;21131;-49
2021/01/13 03:04:43;;;;;;;0.10;0.10;;;;;;;-2.85;82.70;99956.92;1729699;81;21666;-48
2021/01/13 03:07:15;;;;;;;0.55;0.55;;;;;;;-2.85;82.95;99956.92;1759689;81;21138;-49
2021/01/13 03:09:47;;;;;;;1.00;0.72;;;;;;;-2.85;82.98;99950.24;1760213;81;21453;-49
2021/01/13 03:12:26;;;;;;;0.10;0.10;;;;;;;-2.86;83.11;99936.58;1739035;81;21600;-48
2021/01/13 03:14:55;;;;;;;0.20;0.20;;;;;;;-2.87;82.75;99918.87;1730026;82;22057;-49
2021/01/13 03:17:37;;;;;;;0.10;0.10;;;;;;;-2.90;82.77;99914.75;1760269;80;21686;-48
2021/01/13 03:20:26;;;;;;;0.10;0.10;;;;;;;-2.90;82.79;99915.27;1730380;82;21577;-49
2021/01/13 03:23:03;;;;;;;0.53;0.42;;;;;;;-2.88;83.11;99923.92;1759707;80;21162;-49
2021/01/13 03:25:36;;;;;;;0.62;0.62;;;;;;;-2.87;82.94;99936.25;1730003;81;21666;-48
2021/01/13 03:28:06;;;;;;;0.10;0.10;;;;;;;-2.89;82.79;99931.13;1730098;82;21162;-49
2021/01/13 03:30:34;;;;;;;0.65;0.30;;;;;;;-2.90;82.97;99934.80;1746820;81;21146;-48
2021/01/13 03:33:07;;;;;;;0.10;0.10;;;;;;;-2.89;82.84;99928.97;1730399;81;21120;-49
2021/01/13 03:35:45;;;;;;;0.10;0.10;;;;;;;-2.91;82.50;99933.69;1760463;80;21131;-49
2021/01/13 03:38:19;;;;;;;0.00;0.00;;;;;;;-2.93;82.55;99923.71;1741201;81;21572;-49
2021/01/13 03:40:48;;;;;;;0.53;0.53;;;;;;;-2.92;82.76;99924.01;1747861;80;21523;-49
2021/01/13 03:43:22;;;;;;;0.00;0.00;;;;;;;-2.93;83.04;99928.53;1737259;81;21112;-49
2021/01/13 03:45:52;;;;;;;1.32;0.25;;;;;;;-2.93;82.98;99935.22;1756074;80;21936;-49
2021/01/13 03:48:49;;;;;;;0.10;0.10;;;;;;;-2.91;83.24;99937.70;1725574;81;21148;-48
2021/01/13 03:51:46;;;;;;;1.37;0.75;;;;;;;-2.92;83.14;99932.84;1751428;81;21155;-49
2021/01/13 03:54:14;;;;;;;0.00;0.00;;;;;;;-2.91;83.22;99924.34;1752232;81;21548;-48
2021/01/13 03:57:01;;;;;;;0.45;0.45;;;;;;;-2.90;83.24;99920.62;1754646;81;21158;-49
2021/01/13 04:00:07;;;;;;;0.10;0.10;;;;;;;-2.90;83.27;99920.62;1741914;81;21131;-49
2021/01/13 04:03:09;;;;;;;1.02;0.95;;;;;;;-2.91;83.40;99904.28;1735495;81;21503;-49
2021/01/13 04:05:39;;;;;;;0.10;0.10;;;;;;;-2.91;83.23;99898.41;1774959;80;21156;-49
2021/01/13 04:08:08;;;;;;;0.47;0.47;;;;;;;-2.89;83.36;99890.20;1710650;83;21131;-49
2021/01/13 04:10:36;;;;;;;0.60;0.60;;;;;;;-2.91;83.16;99882.38;1717124;82;21516;-49
2021/01/13 04:13:39;;;;;;;0.00;0.00;;;;;;;-2.90;83.32;99873.83;1751674;81;21559;-49
2021/01/13 04:16:09;;;;;;;0.20;0.20;;;;;;;-2.89;83.31;99871.48;1721871;81;21178;-49
2021/01/13 04:18:37;;;;;;;0.75;0.65;;;;;;;-2.90;83.24;99859.13;1762434;80;21128;-49
2021/01/13 04:21:06;;;;;;;0.82;0.45;;;;;;;-2.93;82.87;99855.02;1745777;82;21159;-49
2021/01/13 04:23:34;;;;;;;0.20;0.20;;;;;;;-2.91;83.00;99860.16;1739841;82;21197;-50
2021/01/13 04:26:02;;;;;;;1.02;0.75;;;;;;;-2.93;82.76;99858.20;1730432;82;21178;-49
2021/01/13 04:28:30;;;;;;;0.10;0.10;;;;;;;-2.93;82.88;99870.23;1730552;82;21454;-49
2021/01/13 04:30:58;;;;;;;1.10;0.68;;;;;;;-2.92;83.13;99859.31;1721722;81;21581;-50
2021/01/13 04:33:26;;;;;;;1.02;0.33;;;;;;;-2.92;83.21;99853.16;1739669;82;21135;-49
2021/01/13 04:35:53;;;;;;;2.22;0.50;;;;;;;-2.90;83.40;99861.28;1730463;82;21151;-49
2021/01/13 04:38:25;;;;;;;0.75;0.75;;;;;;;-2.89;83.69;99856.26;1730493;82;21212;-49
2021/01/13 04:41:12;;;;;;;0.20;0.20;;;;;;;-2.89;83.47;99836.73;1754483;81;21136;-49
2021/01/13 04:43:57;;;;;;;0.10;0.10;;;;;;;-2.89;83.39;99826.03;1742818;81;21154;-50
2021/01/13 04:46:38;;;;;;;0.25;0.25;;;;;;;-2.90;83.38;99825.70;1760706;81;21819;-50
2021/01/13 04:49:19;;;;;;;0.10;0.10;;;;;;;-2.91;83.30;99818.72;1760473;81;21407;-49
2021/01/13 04:51:47;;;;;;;0.60;0.60;;;;;;;-2.91;83.43;99821.40;1746681;81;21182;-50
2021/01/13 04:54:16;;;;;;;0.30;0.30;;;;;;;-2.91;83.41;99818.72;1727276;81;21602;-50
2021/01/13 04:57:19;;;;;;;0.05;0.05;;;;;;;-2.91;83.10;99817.39;1721437;83;21617;-49
2021/01/13 05:00:11;;;;;;;1.15;0.57;;;;;;;-2.92;83.13;99827.75;1721908;81;21125;-49
2021/01/13 05:03:12;;;;;;;0.57;0.57;;;;;;;-2.93;83.27;99826.94;1725458;81;21147;-49
2021/01/13 05:05:47;;;;;;;1.25;1.25;;;;;;;-2.93;83.22;99823.45;1751614;81;21505;-49
2021/01/13 05:08:27;;;;;;;0.10;0.10;;;;;;;-2.92;82.97;99815.20;1749383;81;21211;-49
2021/01/13 05:11:10;;;;;;;0.42;0.25;;;;;;;-2.91;83.03;99812.04;1749250;81;21188;-49
2021/01/13 05:13:41;;;;;;;0.98;0.98;;;;;;;-2.91;83.01;99810.70;1740009;81;21155;-49
2021/01/13 05:16:11;;;;;;;0.30;0.30;;;;;;;-2.90;82.96;99800.30;1745412;82;21111;-50
2021/01/13 05:18:54;;;;;;;0.75;0.75;;;;;;;-2.91;83.16;99801.34;1730506;82;21475;-49
2021/01/13 05:21:26;;;;;;;0.53;0.53;;;;;;;-2.91;83.18;99804.02;1750166;81;21151;-49
2021/01/13 05:23:57;;;;;;;0.53;0.53;;;;;;;-2.88;83.33;99800.41;1743411;81;21155;-49
2021/01/13 05:26:26;;;;;;;1.95;0.85;;;;;;;-2.87;83.84;99802.55;1721781;83;21187;-50
2021/01/13 05:29:29;;;;;;;0.30;0.30;;;;;;;-2.89;84.53;99812.66;1751790;80;21616;-49
2021/01/13 05:31:56;;;;;;;0.08;0.08;;;;;;;-2.94;85.25;99799.06;1752203;80;21157;-49
2021/01/13 05:34:24;;;;;;;0.10;0.10;;;;;;;-2.99;85.88;99798.86;1714323;81;21119;-49
2021/01/13 05:37:17;;;;;;;0.55;0.55;;;;;;;-3.03;86.31;99798.47;1694989;83;21162;-49
2021/01/13 05:39:52;;;;;;;0.10;0.10;;;;;;;-3.08;86.97;99800.94;1726075;81;21558;-49
2021/01/13 05:42:20;;;;;;;0.30;0.30;;;;;;;-3.16;87.86;99787.27;1751644;81;21201;-50
2021/01/13 05:44:48;;;;;;;0.10;0.10;;;;;;;-3.21;88.52;99780.39;1743725;80;21191;-49
2021/01/13 05:47:30;;;;;;;2.60;0.90;;;;;;;-3.27;89.23;99783.87;1721453;83;21521;-50
2021/01/13 05:49:59;;;;;;;0.15;0.15;;;;;;;-3.29;89.57;99797.94;1714129;81;21407;-50
2021/01/13 05:52:33;;;;;;;0.68;0.68;;;;;;;-3.30;90.00;99797.64;1745736;82;21128;-49
2021/01/13 05:55:01;;;;;;;1.60;1.00;;;;;;;-3.30;90.37;99807.00;1731204;81;21213;-49
2021/01/13 05:57:29;;;;;;;2.10;1.35;;;;;;;-3.32;90.60;99805.85;1706657;81;21151;-49
2021/01/13 05:59:57;;;;;;;0.33;0.33;;;;;;;-3.32;90.97;99799.69;1751567;81;21581;-49
2021/01/13 06:02:25;;;;;;;1.75;0.90;;;;;;;-3.32;91.32;99799.69;1739116;81;21438;-49
2021/01/13 06:04:53;;;;;;;0.10;0.10;;;;;;;-3.33;91.79;99787.37;1724288;81;21115;-50
2021/01/13 06:07:22;;;;;;;5.92;0.62;;;;;;;-3.34;91.99;99783.03;1683775;82;21668;-49
2021/01/13 06:09:57;;;;;;;0.37;0.37;;;;;;;-3.36;92.30;99765.05;1759678;81;21135;-49
2021/01/13 06:12:25;;;;;;;0.65;0.65;;;;;;;-3.37;92.55;99775.44;1723829;81;21131;-50
2021/01/13 06:14:53;;;;;;;0.70;0.70;;;;;;;-3.37;92.93;99776.78;1719017;81;21140;-49
2021/01/13 06:17:23;;;;;;;0.75;0.75;;;;;;;-3.37;93.17;99770.09;1732644;82;21180;-49
2021/01/13 06:19:54;;;;;;;1.02;0.70;;;;;;;-3.38;93.38;99769.80;1752895;81;21147;-49
2021/01/13 06:22:34;;;;;;;1.42;0.60;;;;;;;-3.37;93.56;99765.56;1737400;81;21195;-49
2021/01/13 06:25:04;;;;;;;1.02;0.55;;;;;;;-3.37;93.79;99768.77;1736199;81;21684;-49
2021/01/13 06:27:50;;;;;;;0.20;0.20;;;;;;;-3.38;93.95;99761.78;1730103;82;21196;-49
2021/01/13 06:30:18;;;;;;;0.15;0.15;;;;;;;-3.40;94.36;99755.82;1733615;81;21581;-49
2021/01/13 06:33:09;;;;;;;0.70;0.70;;;;;;;-3.38;94.63;99751.09;1730476;81;21166;-49
2021/01/13 06:35:48;;;;;;;1.60;1.50;;;;;;;-3.37;94.89;99762.90;1731200;81;21178;-49
2021/01/13 06:38:18;;;;;;;0.10;0.10;;;;;;;-3.36;95.12;99750.35;1730209;82;21156;-49
2021/01/13 06:40:48;;;;;;;0.45;0.45;;;;;;;-3.36;95.35;99744.52;1729719;82;21018;-50
2021/01/13 06:43:15;;;;;;;0.35;0.35;;;;;;;-3.39;95.53;99746.77;1680354;81;21469;-49
2021/01/13 06:45:44;;;;;;;1.12;0.90;;;;;;;-3.39;95.64;99748.92;1728315;81;21104;-49
2021/01/13 06:48:11;;;;;;;0.00;0.00;;;;;;;-3.39;95.80;99744.09;1740800;81;21177;-49
2021/01/13 06:50:40;;;;;;;0.08;0.08;;;;;;;-3.38;95.93;99740.41;1734985;81;21674;-49
2021/01/13 06:53:09;;;;;;;0.30;0.30;;;;;;;-3.35;95.92;99742.14;1758519;80;21135;-49
2021/01/13 06:55:38;;;;;;;0.10;0.10;;;;;;;-3.34;95.78;99748.30;1764573;80;21636;-50
2021/01/13 06:58:15;;;;;;;0.93;0.93;;;;;;;-3.35;95.89;99744.00;1724038;81;21166;-50
2021/01/13 07:00:44;;;;;;;0.25;0.25;;;;;;;-3.35;95.89;99730.64;1726283;81;21179;-50
2021/01/13 07:03:25;;;;;;;0.80;0.80;;;;;;;-3.33;95.74;99728.59;1728374;81;21135;-49
2021/01/13 07:05:51;;;;;;;0.10;0.10;;;;;;;-3.32;95.49;99735.05;1757963;80;21171;-50
2021/01/13 07:08:19;;;;;;;2.42;0.33;;;;;;;-3.33;95.42;99724.59;1753425;81;21142;-50
2021/01/13 07:10:47;;;;;;;0.57;0.57;;;;;;;-3.33;95.55;99723.25;1729988;80;21072;-50
2021/01/13 07:13:18;;;;;;;1.17;0.93;;;;;;;-3.31;95.71;99710.52;1747202;81;21434;-50
2021/01/13 07:15:45;;;;;;;0.10;0.10;;;;;;;-3.27;95.56;99709.05;1744035;81;21158;-49
2021/01/13 07:18:13;;;;;;;0.40;0.20;;;;;;;-3.23;95.29;99714.82;1738891;81;21629;-50
2021/01/13 07:20:42;;;;;;;1.00;0.65;;;;;;;-3.20;95.25;99708.53;1726099;81;21574;-49
2021/01/13 07:23:10;;;;;;;0.10;0.10;;;;;;;-3.19;94.90;99703.52;1704987;83;21146;-49
2021/01/13 07:25:48;;;;;;;1.95;0.75;;;;;;;-3.21;94.87;99702.89;1756800;81;21579;-49
2021/01/13 07:28:17;;;;;;;0.62;0.62;;;;;;;-3.20;95.09;99704.52;1730340;81;21145;-49
2021/01/13 07:30:45;;;;;;;0.45;0.42;;;;;;;-3.17;95.02;99695.27;1760842;80;21123;-49
2021/01/13 07:33:14;;;;;;;1.10;1.10;;;;;;;-3.14;95.07;99690.34;1757965;80;21419;-50
2021/01/13 07:35:48;;;;;;;0.20;0.20;;;;;;;-3.12;95.08;99682.91;1758446;80;21179;-50
2021/01/13 07:38:20;;;;;;;1.00;0.57;;;;;;;-3.09;94.85;99680.34;1759967;80;21562;-49
2021/01/13 07:41:01;;;;;;;0.00;0.00;;;;;;;-3.06;94.85;99679.94;1756792;80;21569;-50
2021/01/13 07:44:12;;;;;;;0.37;0.37;;;;;;;-3.04;94.56;99685.38;1756930;81;21585;-50
2021/01/13 07:46:49;;;;;;;1.70;0.80;;;;;;;-3.00;94.22;99679.61;1749726;80;21137;-50
2021/01/13 07:49:22;;;;;;;0.10;0.10;;;;;;;-2.98;94.14;99673.55;1733030;81;21139;-49
2021/01/13 07:51:57;;;;;;;0.30;0.30;;;;;;;-2.95;94.09;99673.12;1734115;81;21159;-49
2021/01/13 07:54:32;;;;;;;0.88;0.85;;;;;;;-2.94;94.10;99666.73;1730745;81;21170;-49
2021/01/13 07:57:03;;;;;;;4.65;0.80;;;;;;;-2.90;93.65;99660.75;1732225;81;21142;-49
2021/01/13 07:59:41;;;;;;;0.20;0.20;;;;;;;-2.87;93.49;99658.17;1750999;81;21115;-49
2021/01/13 08:02:47;;;;;;;0.57;0.57;;;;;;;-2.89;93.50;99647.71;1739176;81;21127;-49
2021/01/13 08:05:35;;;;;;;0.53;0.53;;;;;;;-2.88;93.51;99643.98;1762083;81;21519;-49
2021/01/13 08:08:08;;;;;;;0.30;0.30;;;;;;;-2.86;93.72;99636.58;1744232;81;21458;-49
2021/01/13 08:10:40;;;;;;;0.30;0.30;;;;;;;-2.82;94.02;99628.95;1738239;82;21530;-49
2021/01/13 08:13:39;;;;;;;0.10;0.10;;;;;;;-2.82;93.35;99635.14;1738793;81;21142;-49
2021/01/13 08:16:45;;;;;;;0.20;0.20;;;;;;;-2.83;93.79;99632.66;1762705;80;21103;-49
2021/01/13 08:19:52;;;;;;;0.55;0.55;;;;;;;-2.86;93.63;99629.90;1730237;81;21442;-49
2021/01/13 08:22:25;;;;;;;0.75;0.75;;;;;;;-2.88;94.31;99632.48;1747890;81;21183;-49
2021/01/13 08:24:52;;;;;;;1.87;0.42;;;;;;;-2.84;94.24;99641.73;1738789;81;21605;-50
2021/01/13 08:27:21;;;;;;;0.10;0.10;;;;;;;-2.83;93.73;99635.34;1739091;81;21645;-49
2021/01/13 08:29:57;;;;;;;0.13;0.13;;;;;;;-2.83;93.50;99626.80;1742479;82;21124;-49
2021/01/13 08:32:40;;;;;;;0.00;0.00;;;;;;;-2.83;93.51;99631.33;1732651;81;21155;-49
2021/01/13 08:35:08;;;;;;;0.60;0.60;;;;;;;-2.84;93.70;99623.02;1729641;82;21123;-49
2021/01/13 08:37:37;;;;;;;0.20;0.20;;;;;;;-2.82;93.55;99628.45;1759781;80;21135;-49
2021/01/13 08:40:26;;;;;;;0.05;0.05;;;;;;;-2.81;93.52;99629.27;1750866;80;21158;-50
2021/01/13 08:43:13;;;;;;;0.10;0.10;;;;;;;-2.81;93.54;99626.59;1740012;81;21186;-49
2021/01/13 08:45:47;;;;;;;0.17;0.17;;;;;;;-2.81;94.09;99635.95;1702826;81;21011;-49
2021/01/13 08:48:21;;;;;;;0.00;0.00;;;;;;;-2.83;94.17;99626.80;1788638;80;21154;-50
2021/01/13 08:51:09;;;;;;;0.15;0.15;;;;;;;-2.81;94.50;99619.91;1730640;81;21412;-49
2021/01/13 08:53:37;;;;;;;0.50;0.50;;;;;;;-2.79;94.43;99615.17;1734705;81;21141;-49
2021/01/13 08:56:05;;;;;;;0.17;0.17;;;;;;;-2.79;94.19;99604.97;1745051;80;21159;-50
2021/01/13 08:58:33;;;;;;;2.15;0.80;;;;;;;-2.79;94.30;99601.80;1773258;80;21135;-49
2021/01/13 09:01:08;;;;;;;2.27;0.80;;;;;;;-2.77;94.62;99594.36;1734497;81;21200;-50
2021/01/13 09:03:40;;;;;;;0.70;0.17;;;;;;;-2.73;94.54;99588.91;1736565;81;21127;-49
2021/01/13 09:06:24;;;;;;;0.08;0.08;;;;;;;-2.70;94.56;99586.31;1744541;81;21149;-49
2021/01/13 09:08:53;;;;;;;0.55;0.55;;;;;;;-2.70;94.45;99589.80;1722632;81;21108;-48
2021/01/13 09:11:35;;;;;;;0.00;0.00;;;;;;;-2.73;93.65;99580.88;1762694;80;21156;-49
2021/01/13 09:14:21;;;;;;;0.50;0.50;;;;;;;-2.75;93.69;99578.93;1735379;81;21170;-49
2021/01/13 09:16:57;;;;;;;1.35;0.80;;;;;;;-2.72;93.59;99575.01;1726697;83;21599;-49
2021/01/13 09:19:36;;;;;;;0.00;0.00;;;;;;;-2.72;93.76;99571.84;1742883;80;21194;-49
2021/01/13 09:22:07;;;;;;;0.37;0.37;;;;;;;-2.71;93.52;99552.08;1752464;81;21138;-49
2021/01/13 09:24:40;;;;;;;0.98;0.23;;;;;;;-2.72;93.49;99550.45;1754422;81;21439;-49
2021/01/13 09:27:09;;;;;;;0.33;0.33;;;;;;;-2.73;93.65;99547.45;1767957;80;21139;-49
2021/01/13 09:29:53;;;;;;;0.75;0.75;;;;;;;-2.71;93.31;99548.06;1726991;81;21151;-49
2021/01/13 09:32:21;;;;;;;0.47;0.47;;;;;;;-2.70;93.41;99537.66;1731879;81;21186;-49
2021/01/13 09:34:51;;;;;;;0.20;0.20;;;;;;;-2.68;93.42;99541.47;1756937;81;21123;-49
2021/01/13 09:39:59;;;;;;;0.15;0.15;;;;;;;-2.60;93.18;99532.68;1829358;76;29104;-48
2021/01/13 09:42:38;;;;;;;0.33;0.33;;;;;;;-2.63;92.60;99523.73;1763603;80;21446;-48
2021/01/13 09:45:07;;;;;;;0.42;0.42;;;;;;;-2.62;92.78;99518.70;1769443;80;21174;-48
2021/01/13 09:47:35;;;;;;;0.05;0.05;;;;;;;-2.57;93.37;99513.20;1784096;80;21621;-48
2021/01/13 09:50:03;;;;;;;0.15;0.15;;;;;;;-2.52;93.13;99513.37;1760911;80;21165;-48
2021/01/13 09:52:43;;;;;;;0.55;0.55;;;;;;;-2.47;92.93;99508.22;1782330;78;21137;-49
2021/01/13 09:55:12;;;;;;;0.65;0.37;;;;;;;-2.42;92.85;99501.16;1772489;80;21155;-48
2021/01/13 09:57:39;;;;;;;2.15;1.12;;;;;;;-2.34;92.80;99490.70;1749455;80;21565;-48
2021/01/13 10:00:10;;;;;;;1.65;0.68;;;;;;;-2.28;92.16;99488.48;1724375;83;21130;-49
2021/01/13 10:02:42;;;;;;;0.65;0.65;;;;;;;-2.26;90.77;99489.08;1709935;83;21127;-48
2021/01/13 10:05:13;;;;;;;0.00;0.00;;;;;;;-2.27;90.47;99490.14;1720891;83;21130;-48
2021/01/13 10:07:40;;;;;;;0.10;0.10;;;;;;;-2.27;90.01;99481.30;1718841;82;21099;-49
2021/01/13 10:10:09;;;;;;;0.10;0.10;;;;;;;-2.23;90.23;99487.83;1722262;82;21183;-48
2021/01/13 10:12:42;;;;;;;0.15;0.15;;;;;;;-2.23;89.34;99481.95;1722249;80;21585;-49
2021/01/13 10:15:12;;;;;;;0.28;0.28;;;;;;;-2.24;88.32;99474.97;1732213;81;21216;-49
2021/01/13 10:17:41;;;;;;;0.47;0.47;;;;;;;-2.31;88.38;99467.52;1710032;80;21589;-48
2021/01/13 10:20:16;;;;;;;0.10;0.10;;;;;;;-2.32;88.51;99473.92;1704941;82;21163;-49
2021/01/13 10:22:46;;;;;;;0.90;0.82;;;;;;;-2.32;88.27;99473.11;1718071;81;21200;-49
2021/01/13 10:25:28;;;;;;;0.37;0.35;;;;;;;-2.35;88.00;99468.98;1716764;83;21127;-48
2021/01/13 10:27:56;;;;;;;0.70;0.70;;;;;;;-2.40;88.25;99454.10;1708174;83;21537;-49
2021/01/13 10:30:25;;;;;;;0.20;0.20;;;;;;;-2.42;88.27;99453.00;1736999;81;21147;-48
2021/01/13 10:32:54;;;;;;;1.65;1.02;;;;;;;-2.44;87.95;99448.38;1720689;81;21175;-48
2021/01/13 10:35:26;;;;;;;0.10;0.10;;;;;;;-2.41;88.31;99449.80;1718334;82;21194;-49
2021/01/13 10:37:55;;;;;;;0.15;0.15;;;;;;;-2.37;88.64;99442.98;1739448;80;21162;-50
2021/01/13 10:40:24;;;;;;;2.02;0.68;;;;;;;-2.34;88.41;99435.85;1740383;81;21174;-49
2021/01/13 10:42:53;;;;;;;0.20;0.20;;;;;;;-2.38;88.10;99430.10;1732671;81;21484;-49
2021/01/13 10:45:21;;;;;;;0.20;0.20;;;;;;;-2.38;87.92;99418.59;1720108;82;21861;-49
2021/01/13 10:47:59;;;;;;;0.68;0.60;;;;;;;-2.39;87.72;99416.44;1745266;81;21173;-49
2021/01/13 10:50:30;;;;;;;0.05;0.05;;;;;;;-2.37;88.00;99420.24;1747986;81;21158;-49
2021/01/13 10:52:59;;;;;;;0.15;0.15;;;;;;;-2.36;87.86;99420.53;1772673;79;21126;-49
2021/01/13 10:55:28;;;;;;;0.10;0.10;;;;;;;-2.37;87.80;99420.24;1758483;80;21129;-49
2021/01/13 10:57:56;;;;;;;0.10;0.10;;;;;;;-2.39;87.55;99415.63;1783884;78;21165;-50
2021/01/13 11:00:28;;;;;;;0.10;0.10;;;;;;;-2.40;87.73;99407.28;1767494;80;21137;-49
2021/01/13 11:02:59;;;;;;;0.10;0.10;;;;;;;-2.42;87.14;99404.84;1796779;78;21170;-49
2021/01/13 11:05:27;;;;;;;0.30;0.30;;;;;;;-2.45;87.04;99400.44;1777152;80;21522;-49
2021/01/13 11:07:58;;;;;;;0.30;0.30;;;;;;;-2.45;86.69;99399.09;1811965;78;21150;-49
2021/01/13 11:10:26;;;;;;;0.10;0.10;;;;;;;-2.48;86.85;99396.88;1728986;82;21110;-49
2021/01/13 11:13:01;;;;;;;0.20;0.20;;;;;;;-2.52;86.87;99390.31;1749859;80;21550;-49
2021/01/13 11:15:29;;;;;;;1.55;1.05;;;;;;;-2.54;86.81;99384.39;1756716;81;21032;-49
2021/01/13 11:17:57;;;;;;;0.10;0.10;;;;;;;-2.54;86.83;99379.85;1730089;82;21110;-49
2021/01/13 11:20:30;;;;;;;0.00;0.00;;;;;;;-2.54;86.85;99379.04;1766765;80;21197;-50
2021/01/13 11:22:58;;;;;;;1.35;0.42;;;;;;;-2.54;86.78;99379.04;1766955;80;21119;-49
2021/01/13 11:25:34;;;;;;;2.17;0.65;;;;;;;-2.56;87.11;99375.77;1757246;81;21138;-49
2021/01/13 11:28:13;;;;;;;0.03;0.03;;;;;;;-2.55;87.56;99366.69;1774199;80;21158;-49
2021/01/13 11:30:47;;;;;;;0.20;0.20;;;;;;;-2.52;87.47;99370.25;1757743;81;21628;-49
2021/01/13 11:33:16;;;;;;;0.13;0.13;;;;;;;-2.52;87.50;99368.91;1757782;80;21660;-49
2021/01/13 11:35:47;;;;;;;1.07;0.70;;;;;;;-2.50;87.49;99364.16;1772282;80;21118;-49
2021/01/13 11:38:35;;;;;;;0.00;0.00;;;;;;;-2.50;87.41;99354.80;1741704;81;21154;-49
2021/01/13 11:41:31;;;;;;;0.10;0.10;;;;;;;-2.52;87.44;99361.73;1700089;81;21146;-49
2021/01/13 11:44:35;;;;;;;0.37;0.37;;;;;;;-2.52;87.19;99360.89;1756491;80;21286;-49
2021/01/13 11:47:11;;;;;;;0.20;0.20;;;;;;;-2.55;87.23;99362.67;1695111;83;21121;-49
2021/01/13 11:49:52;;;;;;;0.10;0.10;;;;;;;-2.56;87.59;99362.39;1695037;84;21177;-49
2021/01/13 11:52:22;;;;;;;0.00;0.00;;;;;;;-2.56;87.35;99357.03;1700516;83;21201;-48
2021/01/13 11:54:53;;;;;;;0.10;0.10;;;;;;;-2.56;87.61;99355.70;1717782;83;21032;-49
2021/01/13 11:57:25;;;;;;;;;;;;;;;-2.56;87.72;99357.03;1750300;80;21108;-49
2021/01/13 11:59:55;;;;;;;0.15;0.15;;;;;;;-2.56;87.56;99359.71;1720672;83;20263;-49
2021/01/13 12:02:31;;;;;;;0.13;0.13;;;;;;;-2.61;87.26;99358.50;1716215;82;21114;-49
2021/01/13 12:04:58;;;;;;;0.00;0.00;;;;;;;-2.63;87.23;99354.41;1740527;82;21185;-49
2021/01/13 12:07:26;;;;;;;0.20;0.20;;;;;;;-2.66;87.48;99346.31;1724538;82;21572;-49